KSJT

San Angelo Regional / Mathis Field Airport

San Angelo, Texas, USA
KSJT 241720Z 2418/2518 VRB05KT P6SM FEW050 FM241900 17006KT P6SM SKC FM251600 18012G18KT P6SM SKC
Issued Valid From Valid To
Sep-24 @ 17:20 UTC
(2 hours ago)
Sep-24 @ 18:00 UTC
(2 hours ago)
Sep-25 @ 18:00 UTC
(in 22 hours)
Expired Click to View Sep-24 @ 18:00 to Sep-24 @ 19:00
KSJT 241720Z 2418/2518 VRB05KT P6SM FEW050
Wind Visibility Clouds
Variable at 5 knots Greater than 6 miles
  • Few at 5,000' AGL
From Sep-24 @ 19:00 to Sep-25 @ 16:00
FM241900 17006KT P6SM SKC
Wind Visibility Clouds
170° at 6 knots Greater than 6 miles
  • Clear skies
From Sep-25 @ 16:00 to Sep-25 @ 18:00
FM251600 18012G18KT P6SM SKC
Wind Visibility Clouds
180° at 12 knots
 Gusting to 18 knots
Greater than 6 miles
  • Clear skies
KSJT 241720Z 2418/2518 VRB05KT P6SM FEW050 FM241900 17006KT P6SM SKC FM251600 18012G18KT P6SM SKC
Issued Sep-24 @ 17:20 UTC
(2 hours ago)
Valid From Sep-24 @ 18:00 UTC
(2 hours ago)
Valid To Sep-25 @ 18:00 UTC
(in 22 hours)
Sep-24 @ 18:00 - Sep-24 @ 19:00
Wind Visibility
Variable at 5 knots Greater than 6 miles
Clouds
  • Few at 5,000' AGL
From Sep-24 @ 19:00 - Sep-25 @ 16:00
Wind Visibility
170° at 6 knots Greater than 6 miles
Clouds
  • Clear skies
From Sep-25 @ 16:00 - Sep-25 @ 18:00
Wind Visibility
180° at 12 knots
 Gusting to 18 knots
Greater than 6 miles
Clouds
  • Clear skies